Time;durP1;ratioP1;P1;durP2;ratioP2;P2;SDS_P1;SDS_P2;PMS_P1;PMS_P2;Temp;Humidity;BMP_temperature;BMP_pressure;BME280_temperature;BME280_humidity;BME280_pressure;Samples;Min_cycle;Max_cycle;Signal;HPM_P1;HPM_P2
2021/06/26 00:00:12;;;;;;;;;;;15.50;99.90;;;;;;5075195;28;19920;-68
2021/06/26 00:02:38;;;;;;;;;;;15.50;99.90;;;;;;5074325;28;20285;-69
2021/06/26 00:05:04;;;;;;;;;;;15.50;99.90;;;;;;5075623;28;19952;-67
2021/06/26 00:07:30;;;;;;;;;;;15.50;99.90;;;;;;5073982;28;19923;-68
2021/06/26 00:09:56;;;;;;;;;;;15.60;99.90;;;;;;5072967;28;19913;-68
2021/06/26 00:12:22;;;;;;;;;;;15.60;99.90;;;;;;5074077;28;20277;-66
2021/06/26 00:14:49;;;;;;;;;;;15.60;99.90;;;;;;5056302;28;19908;-68
2021/06/26 00:17:14;;;;;;;;;;;15.60;99.90;;;;;;5057096;28;19908;-67
2021/06/26 00:19:40;;;;;;;;;;;15.70;99.90;;;;;;5074379;28;20304;-67
2021/06/26 00:22:06;;;;;;;;;;;15.70;99.90;;;;;;5073113;28;19912;-67
2021/06/26 00:24:32;;;;;;;;;;;15.70;99.90;;;;;;5070514;28;19908;-66
2021/06/26 00:26:58;;;;;;;;;;;15.70;99.90;;;;;;5071321;28;19912;-68
2021/06/26 00:29:24;;;;;;;;;;;15.80;99.90;;;;;;5056560;28;19919;-69
2021/06/26 00:31:50;;;;;;;;;;;15.80;99.90;;;;;;5073966;28;20430;-68
2021/06/26 00:34:16;;;;;;;;;;;15.80;99.90;;;;;;5073220;28;20254;-68
2021/06/26 00:36:42;;;;;;;;;;;15.80;99.90;;;;;;5073113;28;19912;-68
2021/06/26 00:39:08;;;;;;;;;;;15.80;99.90;;;;;;5074207;28;19920;-69
2021/06/26 00:41:34;;;;;;;;;;;15.80;99.90;;;;;;5073693;28;19953;-69
2021/06/26 00:43:59;;;;;;;;;;;15.70;99.90;;;;;;5073815;28;19952;-69
2021/06/26 00:46:25;;;;;;;;;;;15.70;99.90;;;;;;5073225;28;19912;-69
2021/06/26 00:48:51;;;;;;;;;;;15.70;99.90;;;;;;5074215;28;19912;-68
2021/06/26 00:51:17;;;;;;;;;;;15.70;99.90;;;;;;5074279;28;19921;-67
2021/06/26 00:53:43;;;;;;;;;;;15.70;99.90;;;;;;5055804;28;19908;-68
2021/06/26 00:56:09;;;;;;;;;;;15.70;99.90;;;;;;5073798;28;20356;-69
2021/06/26 00:58:35;;;;;;;;;;;15.70;99.90;;;;;;5056182;28;20007;-69
2021/06/26 01:01:01;;;;;;;;;;;15.80;99.90;;;;;;5055830;28;20349;-69
2021/06/26 01:03:27;;;;;;;;;;;15.80;99.90;;;;;;5056561;28;19912;-69
2021/06/26 01:05:53;;;;;;;;;;;15.80;99.90;;;;;;5073043;28;20254;-68
2021/06/26 01:08:18;;;;;;;;;;;15.80;99.90;;;;;;5072882;28;19913;-68
2021/06/26 01:10:44;;;;;;;;;;;15.80;99.90;;;;;;5073735;28;19913;-69
2021/06/26 01:13:10;;;;;;;;;;;15.80;99.90;;;;;;5073069;28;19924;-68
2021/06/26 01:15:36;;;;;;;;;;;15.80;99.90;;;;;;5072792;28;19912;-68
2021/06/26 01:18:02;;;;;;;;;;;15.80;99.90;;;;;;5073733;28;20008;-69
2021/06/26 01:20:28;;;;;;;15.50;8.95;;;15.80;99.90;;;;;;5072129;28;20410;-68
2021/06/26 01:22:57;;;;;;;12.18;8.43;;;15.80;99.90;;;;;;5071109;28;20382;-69
2021/06/26 01:25:24;;;;;;;11.88;8.20;;;15.80;99.90;;;;;;5070721;28;20739;-69
2021/06/26 01:27:50;;;;;;;12.93;8.05;;;15.80;99.90;;;;;;5070894;28;20382;-68
2021/06/26 01:30:19;;;;;;;11.77;7.60;;;15.80;99.90;;;;;;5071910;28;20386;-69
2021/06/26 01:32:45;;;;;;;13.23;8.30;;;15.80;99.90;;;;;;5071704;28;20408;-69
2021/06/26 01:35:11;;;;;;;15.10;8.98;;;15.80;99.90;;;;;;5071599;28;20843;-68
2021/06/26 01:37:38;;;;;;;13.77;8.13;;;15.80;99.90;;;;;;5072627;28;20221;-69
2021/06/26 01:40:05;;;;;;;13.20;7.45;;;15.80;99.90;;;;;;5071884;28;20623;-67
2021/06/26 01:42:31;;;;;;;16.00;8.25;;;15.70;99.90;;;;;;5071965;28;20210;-69
2021/06/26 01:44:57;;;;;;;12.57;8.70;;;15.70;99.90;;;;;;5054338;28;20191;-67
2021/06/26 01:47:23;;;;;;;14.65;8.65;;;15.70;99.90;;;;;;5072711;28;20182;-68
2021/06/26 01:49:49;;;;;;;11.35;8.15;;;15.80;99.90;;;;;;5071605;28;20189;-68
2021/06/26 01:52:15;;;;;;;11.90;8.07;;;15.80;99.90;;;;;;5072801;28;20209;-68
2021/06/26 01:54:41;;;;;;;11.55;7.50;;;15.70;99.90;;;;;;5070428;28;20187;-68
2021/06/26 01:57:08;;;;;;;14.85;8.18;;;15.70;99.90;;;;;;5072174;28;20615;-69
2021/06/26 01:59:34;;;;;;;14.38;8.30;;;15.70;99.90;;;;;;5072057;28;20578;-67
2021/06/26 02:02:01;;;;;;;12.85;8.23;;;15.70;99.90;;;;;;5072545;28;20174;-68
2021/06/26 02:04:27;;;;;;;10.93;7.38;;;15.70;99.90;;;;;;5071100;28;20174;-68
2021/06/26 02:06:53;;;;;;;13.05;8.63;;;15.70;99.90;;;;;;5071865;28;20189;-69
2021/06/26 02:09:19;;;;;;;12.00;6.38;;;15.70;99.90;;;;;;5072622;28;20181;-68
2021/06/26 02:11:45;;;;;;;10.68;7.70;;;15.70;99.90;;;;;;5071090;28;20217;-68
2021/06/26 02:14:12;;;;;;;10.75;7.53;;;15.60;99.90;;;;;;5072363;28;20189;-68
2021/06/26 02:16:39;;;;;;;11.43;7.60;;;15.60;99.90;;;;;;5071350;28;20174;-69
2021/06/26 02:19:05;;;;;;;14.38;8.27;;;15.60;99.90;;;;;;5071375;28;20189;-67
2021/06/26 02:21:31;;;;;;;11.93;8.38;;;15.60;99.90;;;;;;5072173;28;20181;-69
2021/06/26 02:23:57;;;;;;;10.18;6.18;;;15.60;99.90;;;;;;5072617;28;20545;-68
2021/06/26 02:26:23;;;;;;;15.73;8.00;;;15.60;99.90;;;;;;5064728;28;20193;-68
2021/06/26 02:28:49;;;;;;;14.90;6.85;;;15.60;99.90;;;;;;5071835;28;20181;-68
2021/06/26 02:31:15;;;;;;;15.70;7.88;;;15.60;99.90;;;;;;5069994;28;20193;-68
2021/06/26 02:33:41;;;;;;;15.20;8.45;;;15.60;99.90;;;;;;5071535;28;20189;-67
2021/06/26 02:36:08;;;;;;;;;;;15.50;99.90;;;;;;5053801;28;19979;-69
2021/06/26 02:38:34;;;;;;;17.08;8.20;;;15.50;99.90;;;;;;5071006;28;20734;-69
2021/06/26 02:41:00;;;;;;;16.58;8.30;;;15.50;99.90;;;;;;5072040;28;20197;-68
2021/06/26 02:43:26;;;;;;;12.98;7.22;;;15.50;99.90;;;;;;5072296;28;20170;-69
2021/06/26 02:45:52;;;;;;;14.73;7.85;;;15.50;99.90;;;;;;5070513;28;20174;-68
2021/06/26 02:48:18;;;;;;;17.00;7.95;;;15.50;99.90;;;;;;5070582;28;20189;-69
2021/06/26 02:50:44;;;;;;;18.05;8.70;;;15.50;99.90;;;;;;5072053;28;20536;-70
2021/06/26 02:53:10;;;;;;;11.73;7.05;;;15.50;99.90;;;;;;5071337;28;20198;-69
2021/06/26 02:55:36;;;;;;;15.75;8.23;;;15.50;99.90;;;;;;5049686;28;20553;-69
2021/06/26 02:58:02;;;;;;;10.83;7.10;;;15.50;99.90;;;;;;5066987;28;20190;-68
2021/06/26 03:00:29;;;;;;;12.57;7.20;;;15.50;99.90;;;;;;5071108;28;20174;-69
2021/06/26 03:02:55;;;;;;;13.10;6.20;;;15.50;99.90;;;;;;5071452;28;20190;-69
2021/06/26 03:05:21;;;;;;;16.08;6.18;;;15.50;99.90;;;;;;5071868;28;20214;-69
2021/06/26 03:07:51;;;;;;;17.63;6.70;;;15.50;99.90;;;;;;5071439;28;20182;-69
2021/06/26 03:10:17;;;;;;;12.93;6.28;;;15.40;99.90;;;;;;5054057;28;20172;-69
2021/06/26 03:12:43;;;;;;;14.98;8.13;;;15.40;99.90;;;;;;5071431;28;20666;-69
2021/06/26 03:15:10;;;;;;;16.63;7.13;;;15.40;99.90;;;;;;5071919;28;20192;-69
2021/06/26 03:17:36;;;;;;;10.88;6.03;;;15.40;99.90;;;;;;5071613;28;20264;-69
2021/06/26 03:20:03;;;;;;;12.60;5.82;;;15.30;99.90;;;;;;5071477;28;20545;-69
2021/06/26 03:22:29;;;;;;;15.98;6.18;;;15.30;99.90;;;;;;5070876;28;20574;-69
2021/06/26 03:24:55;;;;;;;17.73;7.00;;;15.30;99.90;;;;;;5071417;28;20177;-69
2021/06/26 03:27:21;;;;;;;11.38;6.03;;;15.20;99.90;;;;;;5053344;28;20198;-69
2021/06/26 03:29:47;;;;;;;12.43;6.13;;;15.10;99.90;;;;;;5071124;28;20520;-69
2021/06/26 03:32:14;;;;;;;14.43;6.00;;;15.10;99.90;;;;;;5070510;28;20221;-68
2021/06/26 03:34:40;;;;;;;18.30;6.40;;;15.10;99.90;;;;;;5071673;28;20169;-69
2021/06/26 03:37:06;;;;;;;10.43;6.63;;;15.20;99.90;;;;;;5053765;28;20577;-69
2021/06/26 03:39:32;;;;;;;12.23;6.07;;;15.20;99.90;;;;;;5071215;28;20171;-69
2021/06/26 03:41:58;;;;;;;17.15;6.32;;;15.30;99.90;;;;;;5071652;28;20178;-68
2021/06/26 03:44:24;;;;;;;14.60;7.90;;;15.30;99.90;;;;;;5052294;28;20181;-67
2021/06/26 03:46:50;;;;;;;17.30;8.00;;;15.40;99.90;;;;;;5075046;28;20182;-66
2021/06/26 03:49:16;;;;;;;12.05;6.45;;;15.40;99.90;;;;;;5075296;28;20540;-68
2021/06/26 03:51:42;;;;;;;13.87;6.17;;;15.40;99.90;;;;;;5074662;28;20209;-68
2021/06/26 03:54:08;;;;;;;12.00;6.13;;;15.50;99.90;;;;;;5075245;28;20538;-68
2021/06/26 03:56:34;;;;;;;12.13;6.32;;;15.50;99.90;;;;;;5071720;28;20178;-68
2021/06/26 03:59:02;;;;;;;14.30;6.90;;;15.60;99.90;;;;;;5074933;28;20191;-69
2021/06/26 04:01:28;;;;;;;15.20;5.60;;;15.60;99.90;;;;;;5075082;28;20170;-69
2021/06/26 04:03:54;;;;;;;10.60;5.93;;;15.70;99.90;;;;;;5074237;28;20175;-69
2021/06/26 04:06:20;;;;;;;17.80;6.28;;;15.70;99.90;;;;;;5074779;28;20186;-69
2021/06/26 04:08:46;;;;;;;12.82;6.40;;;15.80;99.90;;;;;;5074611;28;20189;-69
2021/06/26 04:11:12;;;;;;;13.57;6.30;;;15.80;99.90;;;;;;5073769;28;20248;-68
2021/06/26 04:13:38;;;;;;;13.65;6.60;;;15.80;99.90;;;;;;5074283;28;20197;-69
2021/06/26 04:16:04;;;;;;;;;;;15.80;99.90;;;;;;5074929;28;20193;-68
2021/06/26 04:18:30;;;;;;;14.55;6.70;;;15.90;99.90;;;;;;5055524;28;20238;-69
2021/06/26 04:20:56;;;;;;;12.02;6.97;;;15.90;99.90;;;;;;5074460;28;20185;-69
2021/06/26 04:23:23;;;;;;;18.55;7.28;;;15.90;99.90;;;;;;5074913;28;20170;-69
2021/06/26 04:25:51;;;;;;;16.55;6.90;;;15.90;99.90;;;;;;5071790;28;20185;-69
2021/06/26 04:28:17;;;;;;;16.00;7.00;;;15.90;99.90;;;;;;5057119;28;20171;-69
2021/06/26 04:30:43;;;;;;;18.17;7.80;;;15.90;99.90;;;;;;5055738;28;20623;-69
2021/06/26 04:33:09;;;;;;;17.92;8.00;;;15.90;99.90;;;;;;5073550;28;20210;-69
2021/06/26 04:35:36;;;;;;;22.42;9.52;;;15.90;99.90;;;;;;5074692;28;20193;-69
2021/06/26 04:38:02;;;;;;;20.20;8.13;;;15.90;99.90;;;;;;5073888;28;20245;-68
2021/06/26 04:40:29;;;;;;;13.10;7.10;;;15.90;99.90;;;;;;5074225;28;20231;-69
2021/06/26 04:42:55;;;;;;;18.40;8.23;;;15.90;99.90;;;;;;5073864;28;20186;-69
2021/06/26 04:45:22;;;;;;;16.25;7.70;;;15.90;99.90;;;;;;5074017;28;20173;-69
2021/06/26 04:47:48;;;;;;;17.25;8.25;;;16.00;99.90;;;;;;5073186;28;20545;-69
2021/06/26 04:50:14;;;;;;;14.52;7.75;;;16.00;99.90;;;;;;5072139;28;20184;-68
2021/06/26 04:52:41;;;;;;;18.70;8.90;;;16.10;99.90;;;;;;5073203;28;20256;-69
2021/06/26 04:55:08;;;;;;;18.13;10.00;;;16.10;99.90;;;;;;5073577;28;20195;-69
2021/06/26 04:57:34;;;;;;;13.07;8.60;;;16.10;99.90;;;;;;5072842;28;20174;-69
2021/06/26 05:00:00;;;;;;;16.80;7.95;;;16.20;99.90;;;;;;5054826;28;20181;-69
2021/06/26 05:02:26;;;;;;;18.23;8.40;;;16.10;99.90;;;;;;5072622;28;20194;-68
2021/06/26 05:04:52;;;;;;;19.02;8.80;;;16.20;99.90;;;;;;5073793;28;20188;-69
2021/06/26 05:07:18;;;;;;;17.52;8.13;;;16.30;99.90;;;;;;5073334;28;20185;-68
2021/06/26 05:09:44;;;;;;;16.58;8.88;;;16.30;99.90;;;;;;5073374;28;20182;-68
2021/06/26 05:12:10;;;;;;;13.73;7.80;;;16.30;99.90;;;;;;5072809;28;20214;-69
2021/06/26 05:14:36;;;;;;;15.82;8.02;;;16.30;99.90;;;;;;5073299;28;20626;-68
2021/06/26 05:17:03;;;;;;;16.10;7.32;;;16.40;99.90;;;;;;5073478;28;20193;-67
2021/06/26 05:19:29;;;;;;;12.43;7.60;;;16.40;99.90;;;;;;5055325;28;20186;-68
2021/06/26 05:21:55;;;;;;;13.25;7.35;;;16.40;99.90;;;;;;5072366;28;20189;-68
2021/06/26 05:24:21;;;;;;;12.65;6.72;;;16.40;99.90;;;;;;5073229;28;20177;-69
2021/06/26 05:26:47;;;;;;;15.05;7.75;;;16.50;99.90;;;;;;5072279;28;20201;-67
2021/06/26 05:29:13;;;;;;;19.05;8.85;;;16.40;99.90;;;;;;5071942;28;20528;-67
2021/06/26 05:31:39;;;;;;;13.88;8.93;;;16.40;99.90;;;;;;5072874;28;20181;-69
2021/06/26 05:34:05;;;;;;;18.40;8.02;;;16.40;99.90;;;;;;5073016;28;20221;-69
2021/06/26 05:36:31;;;;;;;22.77;7.80;;;16.40;99.90;;;;;;5073409;28;20541;-69
2021/06/26 05:38:58;;;;;;;17.02;8.80;;;16.40;99.90;;;;;;5072463;28;20225;-68
2021/06/26 05:41:24;;;;;;;20.60;9.63;;;16.40;99.90;;;;;;5064847;28;20540;-70
2021/06/26 05:43:50;;;;;;;16.15;7.72;;;16.50;99.90;;;;;;5072427;28;20177;-69
2021/06/26 05:46:16;;;;;;;16.58;7.68;;;16.50;99.90;;;;;;5071729;28;20562;-68
2021/06/26 05:48:42;;;;;;;14.20;7.85;;;16.50;99.90;;;;;;5071431;28;20186;-70
2021/06/26 05:51:14;;;;;;;17.25;7.43;;;16.50;99.90;;;;;;5070749;28;20225;-68
2021/06/26 05:53:40;;;;;;;14.02;7.93;;;16.50;99.90;;;;;;5072381;28;20202;-68
2021/06/26 05:56:06;;;;;;;18.77;8.00;;;16.50;99.90;;;;;;5055177;28;20665;-68
2021/06/26 05:58:33;;;;;;;20.05;8.55;;;16.50;99.90;;;;;;5054693;28;20192;-68
2021/06/26 06:01:00;;;;;;;14.60;7.57;;;16.60;99.90;;;;;;5064302;28;20544;-68
2021/06/26 06:03:26;;;;;;;;;;;16.50;99.90;;;;;;5072620;28;20189;-70
2021/06/26 06:05:52;;;;;;;16.70;8.63;;;16.50;99.90;;;;;;5072526;28;20278;-69
2021/06/26 06:08:19;;;;;;;21.63;8.80;;;16.50;99.90;;;;;;5071908;28;20178;-68
2021/06/26 06:10:45;;;;;;;18.10;8.05;;;16.40;99.90;;;;;;5071138;28;20630;-69
2021/06/26 06:13:15;;;;;;;17.67;8.30;;;16.50;99.90;;;;;;5071638;28;20208;-68
2021/06/26 06:15:45;;;;;;;22.48;9.25;;;16.50;99.90;;;;;;5071948;28;20174;-68
2021/06/26 06:18:11;;;;;;;19.20;8.90;;;16.50;99.90;;;;;;5072619;28;20213;-66
2021/06/26 06:20:37;;;;;;;19.10;8.43;;;16.50;99.90;;;;;;5054185;28;20193;-67
2021/06/26 06:23:04;;;;;;;16.10;8.20;;;16.60;99.90;;;;;;5072433;28;20421;-69
2021/06/26 06:25:31;;;;;;;16.33;8.52;;;16.60;99.90;;;;;;5071700;28;20201;-66
2021/06/26 06:27:57;;;;;;;12.75;8.07;;;16.60;99.90;;;;;;5070706;28;20189;-67
2021/06/26 06:30:23;;;;;;;23.45;8.23;;;16.60;99.90;;;;;;5072193;28;20182;-67
2021/06/26 06:32:49;;;;;;;19.02;8.38;;;16.70;99.90;;;;;;5071537;28;20206;-68
2021/06/26 06:35:16;;;;;;;16.60;7.53;;;16.70;99.90;;;;;;5071927;28;20174;-68
2021/06/26 06:37:42;;;;;;;15.98;7.95;;;16.80;99.90;;;;;;5065736;28;20232;-67
2021/06/26 06:40:08;;;;;;;17.90;7.45;;;16.80;99.90;;;;;;5072342;28;20173;-68
2021/06/26 06:42:35;;;;;;;13.83;7.40;;;16.90;99.90;;;;;;5071596;28;20177;-68
2021/06/26 06:45:01;;;;;;;13.57;7.47;;;16.90;99.90;;;;;;5071974;28;20174;-68
2021/06/26 06:47:27;;;;;;;13.18;6.97;;;17.00;99.90;;;;;;5072823;28;20619;-68
2021/06/26 06:49:53;;;;;;;13.98;7.18;;;17.00;99.90;;;;;;5070933;28;20189;-68
2021/06/26 06:52:19;;;;;;;13.45;6.50;;;17.00;99.90;;;;;;5072492;28;20170;-69
2021/06/26 06:54:46;;;;;;;14.75;6.43;;;17.10;99.90;;;;;;5067828;28;20185;-69
2021/06/26 06:57:12;;;;;;;10.00;6.28;;;17.10;99.90;;;;;;5052414;28;20167;-68
2021/06/26 06:59:38;;;;;;;12.00;6.30;;;17.10;99.90;;;;;;5052575;28;20186;-68
2021/06/26 07:02:04;;;;;;;12.02;6.03;;;17.10;99.90;;;;;;5067491;28;20197;-68
2021/06/26 07:04:30;;;;;;;12.25;6.15;;;17.10;99.90;;;;;;5072693;28;20178;-69
2021/06/26 07:06:57;;;;;;;11.73;5.88;;;17.20;99.90;;;;;;5072356;28;20169;-69
2021/06/26 07:09:23;;;;;;;10.60;7.03;;;17.20;99.90;;;;;;5055631;28;20187;-69
2021/06/26 07:11:49;;;;;;;13.65;6.10;;;17.30;99.90;;;;;;5069640;28;20514;-69
2021/06/26 07:14:15;;;;;;;9.30;5.88;;;17.40;99.90;;;;;;5071519;28;20208;-69
2021/06/26 07:16:41;;;;;;;10.43;5.88;;;17.50;99.90;;;;;;5070948;28;20561;-68
2021/06/26 07:19:08;;;;;;;11.18;6.05;;;17.60;99.90;;;;;;5071708;28;20244;-68
2021/06/26 07:21:34;;;;;;;11.93;6.13;;;17.70;99.90;;;;;;5075521;28;20178;-68
2021/06/26 07:24:00;;;;;;;11.38;5.90;;;17.70;99.90;;;;;;5074319;28;20541;-69
2021/06/26 07:26:26;;;;;;;12.07;5.95;;;17.70;99.90;;;;;;5072609;28;20174;-70
2021/06/26 07:28:52;;;;;;;11.93;6.07;;;17.60;99.90;;;;;;5071951;28;20531;-69
2021/06/26 07:31:18;;;;;;;16.50;6.43;;;17.60;99.90;;;;;;5075003;28;20181;-69
2021/06/26 07:33:44;;;;;;;17.70;5.72;;;17.50;99.90;;;;;;5075183;28;20559;-69
2021/06/26 07:36:10;;;;;;;18.00;6.70;;;17.50;99.90;;;;;;5074340;28;20186;-69
2021/06/26 07:38:36;;;;;;;13.65;6.22;;;17.50;99.90;;;;;;5073873;28;20582;-63
2021/06/26 07:41:02;;;;;;;16.00;6.85;;;17.50;99.90;;;;;;5072770;28;20186;-72
2021/06/26 07:43:29;;;;;;;18.45;6.38;;;17.60;99.90;;;;;;5056094;28;20193;-74
2021/06/26 07:45:55;;;;;;;17.08;6.13;;;17.60;99.90;;;;;;5073452;28;20174;-75
2021/06/26 07:48:21;;;;;;;15.65;6.57;;;17.60;99.90;;;;;;5074719;28;20211;-77
2021/06/26 07:50:50;;;;;;;19.20;5.97;;;17.60;99.90;;;;;;5073108;28;20663;-76
2021/06/26 07:53:17;;;;;;;17.60;6.95;;;17.70;99.90;;;;;;5073904;28;20704;-77
2021/06/26 07:55:43;;;;;;;16.75;7.15;;;17.60;99.90;;;;;;5074542;28;20189;-75
2021/06/26 07:58:09;;;;;;;12.52;6.30;;;17.30;99.90;;;;;;5073241;28;20174;-73
2021/06/26 08:00:35;;;;;;;13.18;6.78;;;17.40;99.90;;;;;;5074711;28;20630;-76
2021/06/26 08:03:02;;;;;;;12.30;6.63;;;17.50;99.90;;;;;;5073996;28;20181;-63
2021/06/26 08:05:28;;;;;;;12.93;6.45;;;17.60;99.90;;;;;;5074867;28;20178;-70
2021/06/26 08:07:54;;;;;;;8.75;5.85;;;17.40;99.90;;;;;;5074256;28;20212;-76
2021/06/26 08:10:20;;;;;;;13.35;6.00;;;17.40;99.90;;;;;;5052719;28;20526;-78
2021/06/26 08:12:46;;;;;;;10.23;5.45;;;17.60;99.90;;;;;;5073003;28;20205;-78
2021/06/26 08:15:13;;;;;;;11.77;5.82;;;17.70;99.90;;;;;;5074637;28;20189;-77
2021/06/26 08:17:39;;;;;;;9.40;5.60;;;17.80;99.90;;;;;;5073851;28;20193;-67
2021/06/26 08:20:05;;;;;;;6.77;4.93;;;17.90;99.90;;;;;;5073524;28;20211;-76
2021/06/26 08:22:31;;;;;;;10.52;5.63;;;18.00;99.90;;;;;;5074760;28;20181;-74
2021/06/26 08:24:57;;;;;;;10.48;5.50;;;18.00;99.90;;;;;;5074805;28;20204;-77
2021/06/26 08:27:24;;;;;;;8.93;5.32;;;17.90;99.90;;;;;;5073442;28;20178;-71
2021/06/26 08:29:50;;;;;;;14.43;6.05;;;18.00;99.90;;;;;;5073520;28;20185;-69
2021/06/26 08:32:16;;;;;;;9.18;5.40;;;18.10;99.90;;;;;;5073176;28;20182;-63
2021/06/26 08:34:42;;;;;;;9.75;5.60;;;18.10;99.90;;;;;;5072118;28;20229;-73
2021/06/26 08:37:08;;;;;;;9.48;5.00;;;18.30;99.90;;;;;;5073017;28;20174;-72
2021/06/26 08:39:34;;;;;;;7.40;4.97;;;18.40;99.90;;;;;;5073164;28;20186;-73
2021/06/26 08:42:00;;;;;;;9.52;4.90;;;18.40;99.90;;;;;;5071809;28;20165;-72
2021/06/26 08:44:26;;;;;;;6.68;5.20;;;18.60;99.90;;;;;;5073047;28;20185;-73
2021/06/26 08:46:53;;;;;;;10.27;5.28;;;18.80;99.90;;;;;;5072356;28;20177;-72
2021/06/26 08:49:19;;;;;;;6.88;4.32;;;18.80;99.90;;;;;;5071125;28;20170;-73
2021/06/26 08:51:45;;;;;;;8.60;4.40;;;18.90;99.90;;;;;;5071272;28;20166;-74
2021/06/26 08:54:13;;;;;;;11.85;5.03;;;18.80;99.90;;;;;;5070406;28;20224;-73
2021/06/26 08:56:40;;;;;;;9.35;5.50;;;18.60;99.90;;;;;;5071024;28;20169;-73
2021/06/26 08:59:06;;;;;;;9.75;5.75;;;18.90;99.90;;;;;;5072070;28;20177;-73
2021/06/26 09:01:36;;;;;;;6.68;4.80;;;19.30;99.90;;;;;;5074034;28;20622;-73
2021/06/26 09:04:04;;;;;;;7.80;5.03;;;19.60;99.90;;;;;;5072967;28;20169;-73
2021/06/26 09:06:33;;;;;;;7.88;4.38;;;19.70;99.90;;;;;;5072957;28;20180;-74
2021/06/26 09:09:00;;;;;;;7.00;4.30;;;20.30;99.90;;;;;;5074100;28;20175;-73
2021/06/26 09:11:26;;;;;;;5.95;4.13;;;20.70;99.90;;;;;;5074160;28;20178;-73
2021/06/26 09:13:53;;;;;;;7.88;4.28;;;20.60;99.90;;;;;;5073857;28;20232;-74
2021/06/26 09:16:20;;;;;;;6.30;4.70;;;20.20;99.90;;;;;;5074123;28;20174;-71
2021/06/26 09:18:47;;;;;;;11.85;4.22;;;20.20;99.90;;;;;;5074004;28;20169;-73
2021/06/26 09:21:37;;;;;;;9.57;5.30;;;20.10;99.90;;;;;;5072632;28;20380;-72
2021/06/26 09:24:05;;;;;;;8.85;4.93;;;19.80;99.90;;;;;;5073764;28;20162;-72
2021/06/26 09:26:41;;;;;;;7.70;4.85;;;19.80;99.90;;;;;;5073791;28;20166;-72
2021/06/26 09:29:17;;;;;;;9.88;4.80;;;19.70;99.90;;;;;;5073612;28;20165;-72
2021/06/26 09:31:50;;;;;;;10.82;5.80;;;19.70;99.90;;;;;;5073813;28;20164;-73
2021/06/26 09:34:16;;;;;;;8.25;5.00;;;19.50;99.90;;;;;;5073454;28;20205;-73
2021/06/26 09:36:42;;;;;;;9.70;5.10;;;19.50;99.90;;;;;;5073565;28;20177;-72
2021/06/26 09:39:11;;;;;;;10.38;5.70;;;19.40;99.90;;;;;;5073147;28;20240;-70
2021/06/26 09:41:39;;;;;;;8.82;5.53;;;19.40;99.90;;;;;;5073619;28;20181;-72
2021/06/26 09:44:12;;;;;;;11.52;5.45;;;19.30;99.90;;;;;;5071321;28;20174;-72
2021/06/26 09:46:50;;;;;;;11.85;6.05;;;19.00;99.90;;;;;;5073575;28;20193;-73
2021/06/26 09:49:26;;;;;;;9.35;5.38;;;18.90;99.90;;;;;;5073157;28;20182;-73
2021/06/26 09:52:04;;;;;;;9.32;5.60;;;19.20;99.90;;;;;;5072551;28;20196;-73
2021/06/26 09:54:31;;;;;;;10.38;5.10;;;19.90;99.90;;;;;;5073490;28;20201;-73
2021/06/26 09:56:57;;;;;;;9.38;4.55;;;20.00;99.90;;;;;;5071823;28;20170;-73
2021/06/26 09:59:33;;;;;;;11.00;5.90;;;20.00;99.90;;;;;;5073326;28;20202;-74
2021/06/26 10:02:00;;;;;;;10.65;5.88;;;19.60;99.90;;;;;;5071828;28;20176;-72
2021/06/26 10:04:26;;;;;;;15.43;5.88;;;19.40;99.90;;;;;;5073039;28;20178;-72
2021/06/26 10:06:53;;;;;;;10.23;5.57;;;19.50;99.90;;;;;;5071980;28;20170;-71
2021/06/26 10:09:19;;;;;;;12.35;5.68;;;19.40;99.90;;;;;;5072898;28;20672;-72
2021/06/26 10:11:45;;;;;;;14.98;6.47;;;19.40;99.90;;;;;;5072970;28;20181;-72
2021/06/26 10:14:11;;;;;;;11.77;5.93;;;19.50;99.90;;;;;;5071008;28;20221;-72
2021/06/26 10:16:39;;;;;;;10.35;5.00;;;19.60;99.90;;;;;;5073060;28;20193;-71
2021/06/26 10:19:09;;;;;;;6.43;5.35;;;19.80;99.90;;;;;;5071498;28;20509;-72
2021/06/26 10:21:35;;;;;;;8.90;4.65;;;19.80;99.90;;;;;;5071857;28;20162;-72
2021/06/26 10:24:11;;;;;;;9.35;5.20;;;19.70;99.90;;;;;;5071476;28;20530;-72
2021/06/26 10:26:38;;;;;;;8.02;3.90;;;19.60;99.90;;;;;;5072898;28;20158;-72
2021/06/26 10:29:04;;;;;;;9.77;5.20;;;19.70;99.90;;;;;;5071273;28;20169;-72
2021/06/26 10:31:44;;;;;;;12.30;5.95;;;19.70;99.90;;;;;;5070482;28;20385;-72
2021/06/26 10:34:22;;;;;;;14.32;6.88;;;19.80;99.90;;;;;;5071385;28;20751;-71
2021/06/26 10:36:54;;;;;;;12.65;6.30;;;19.70;99.90;;;;;;5070470;28;20389;-72
2021/06/26 10:39:28;;;;;;;11.38;5.88;;;19.60;99.90;;;;;;5070261;28;20700;-72
2021/06/26 10:42:01;;;;;;;12.00;6.77;;;19.50;99.90;;;;;;5071706;28;20375;-73
2021/06/26 10:44:51;;;;;;;10.57;6.10;;;19.30;99.90;;;;;;5071779;28;20439;-72
2021/06/26 10:47:18;;;;;;;11.93;5.97;;;19.20;99.90;;;;;;5070962;28;20393;-73
2021/06/26 10:49:45;;;;;;;11.43;5.93;;;19.20;99.90;;;;;;5071704;28;20910;-72
2021/06/26 10:52:15;;;;;;;10.98;5.72;;;19.30;99.90;;;;;;5071359;28;20374;-72
2021/06/26 10:54:55;;;;;;;11.27;6.00;;;19.30;99.90;;;;;;5072841;28;20409;-72
2021/06/26 10:57:21;;;;;;;11.93;5.97;;;19.40;99.90;;;;;;5075637;28;20394;-72
2021/06/26 11:00:14;;;;;;;10.23;6.07;;;19.10;99.90;;;;;;5074533;28;20366;-72
2021/06/26 11:02:44;;;;;;;14.43;6.80;;;19.20;99.90;;;;;;5074342;28;20382;-76
2021/06/26 11:05:11;;;;;;;13.43;6.63;;;19.10;99.90;;;;;;5075723;28;20869;-73
2021/06/26 11:07:37;;;;;;;13.37;7.00;;;18.90;99.90;;;;;;5075588;28;20387;-73
2021/06/26 11:10:11;;;;;;;13.25;7.22;;;19.00;99.90;;;;;;5075183;28;20386;-71
2021/06/26 11:12:48;;;;;;;15.35;7.57;;;19.00;99.90;;;;;;5074368;28;20373;-72
2021/06/26 11:15:23;;;;;;;12.43;7.80;;;19.10;99.90;;;;;;5074618;28;20412;-72
2021/06/26 11:17:49;;;;;;;15.38;8.32;;;19.10;99.90;;;;;;5075168;28;20374;-72
2021/06/26 11:20:16;;;;;;;15.07;8.05;;;19.10;99.90;;;;;;5074107;28;20493;-73
2021/06/26 11:22:44;;;;;;;16.83;8.13;;;18.90;99.90;;;;;;5075136;28;20389;-71
2021/06/26 11:25:11;;;;;;;15.43;9.20;;;18.80;99.90;;;;;;5073593;28;20393;-71
2021/06/26 11:27:37;;;;;;;20.98;9.00;;;18.80;99.90;;;;;;5073730;28;20386;-71
2021/06/26 11:30:08;;;;;;;21.35;10.20;;;18.70;99.90;;;;;;5061977;28;20383;-72
2021/06/26 11:32:35;;;;;;;20.30;10.27;;;18.40;99.90;;;;;;5053331;28;20380;-65
2021/06/26 11:35:03;;;;;;;22.87;9.67;;;18.30;99.90;;;;;;5052592;28;20412;-71
2021/06/26 11:37:36;;;;;;;17.25;9.30;;;18.40;99.90;;;;;;5052559;28;20390;-71
2021/06/26 11:40:24;;;;;;;22.30;9.75;;;18.50;99.90;;;;;;5054580;28;20384;-71
2021/06/26 11:42:53;;;;;;;17.05;10.43;;;18.50;99.90;;;;;;5054726;28;20368;-69
2021/06/26 11:45:21;;;;;;;17.08;9.70;;;18.50;99.90;;;;;;5054377;28;20432;-64
2021/06/26 11:47:47;;;;;;;18.40;10.05;;;18.60;99.90;;;;;;5054547;28;20841;-71
2021/06/26 11:50:18;;;;;;;14.35;9.30;;;18.50;99.90;;;;;;5053909;28;20772;-70
2021/06/26 11:52:44;;;;;;;13.83;8.60;;;18.40;99.90;;;;;;5036879;28;20392;-71
2021/06/26 11:55:11;;;;;;;15.00;8.85;;;18.40;99.90;;;;;;5054172;28;20411;-71
2021/06/26 11:57:37;;;;;;;13.48;9.05;;;18.40;99.90;;;;;;5036585;28;20379;-71
2021/06/26 12:00:06;;;;;;;15.73;9.40;;;18.40;99.90;;;;;;5054134;28;20883;-71
2021/06/26 12:02:33;;;;;;;16.60;9.32;;;18.30;99.90;;;;;;5054438;28;20360;-71
2021/06/26 12:05:00;;;;;;;16.33;9.77;;;18.40;99.90;;;;;;5036366;28;20388;-71
2021/06/26 12:07:34;;;;;;;17.08;8.32;;;18.40;99.90;;;;;;5054550;28;20187;-71
2021/06/26 12:10:00;;;;;;;12.05;7.15;;;18.40;99.90;;;;;;5037759;28;20233;-71
2021/06/26 12:12:26;;;;;;;13.88;7.07;;;18.40;99.90;;;;;;5055134;28;20171;-70
2021/06/26 12:14:53;;;;;;;14.75;8.88;;;18.30;99.90;;;;;;5036320;28;20414;-70
2021/06/26 12:17:21;;;;;;;19.15;8.43;;;18.20;99.90;;;;;;5054729;28;20191;-70
2021/06/26 12:19:48;;;;;;;15.02;8.82;;;18.20;99.90;;;;;;5037688;28;20196;-71
2021/06/26 12:22:20;;;;;;;11.45;6.68;;;18.20;99.90;;;;;;5054887;28;20167;-71
2021/06/26 12:24:46;;;;;;;12.77;7.15;;;18.30;99.90;;;;;;5054847;28;20195;-71
2021/06/26 12:27:17;;;;;;;13.30;6.32;;;18.30;99.90;;;;;;5054878;28;20639;-71
2021/06/26 12:29:45;;;;;;;12.65;6.63;;;18.40;99.90;;;;;;5036945;28;20155;-71
2021/06/26 12:32:22;;;;;;;15.88;7.28;;;18.40;99.90;;;;;;5054848;28;20171;-71
2021/06/26 12:34:48;;;;;;;14.88;7.15;;;18.20;99.90;;;;;;5055212;28;20206;-71
2021/06/26 12:37:14;;;;;;;11.00;6.50;;;18.30;99.90;;;;;;5054392;28;20221;-72
2021/06/26 12:39:40;;;;;;;10.73;6.30;;;18.30;99.90;;;;;;5037035;28;20198;-71
2021/06/26 12:42:09;;;;;;;10.15;5.80;;;18.30;99.90;;;;;;5037273;28;20185;-71
2021/06/26 12:44:36;;;;;;;9.48;5.32;;;18.20;99.90;;;;;;5054732;28;20163;-70
2021/06/26 12:47:03;;;;;;;9.23;5.95;;;18.20;99.90;;;;;;5054724;28;20177;-70